sensor_id;sensor_type;location;lat;lon;timestamp;P1;durP1;ratioP1;P2;durP2;ratioP2
73951;SDS011;62304;47.662;18.324;2023-03-14T00:01:51;5.87;;;2.42;;
73951;SDS011;62304;47.662;18.324;2023-03-14T00:04:54;4.83;;;2.33;;
73951;SDS011;62304;47.662;18.324;2023-03-14T00:07:58;8.07;;;3.13;;
73951;SDS011;62304;47.662;18.324;2023-03-14T00:11:05;7.43;;;2.50;;
73951;SDS011;62304;47.662;18.324;2023-03-14T00:14:10;6.20;;;2.70;;
73951;SDS011;62304;47.662;18.324;2023-03-14T00:17:13;7.43;;;2.25;;
73951;SDS011;62304;47.662;18.324;2023-03-14T00:20:16;6.93;;;2.77;;
73951;SDS011;62304;47.662;18.324;2023-03-14T00:23:19;7.03;;;2.80;;
73951;SDS011;62304;47.662;18.324;2023-03-14T00:26:21;4.82;;;2.03;;
73951;SDS011;62304;47.662;18.324;2023-03-14T00:29:24;7.82;;;2.75;;
73951;SDS011;62304;47.662;18.324;2023-03-14T00:32:27;6.20;;;2.35;;
73951;SDS011;62304;47.662;18.324;2023-03-14T00:35:30;7.97;;;1.87;;
73951;SDS011;62304;47.662;18.324;2023-03-14T00:38:33;5.47;;;2.47;;
73951;SDS011;62304;47.662;18.324;2023-03-14T00:41:39;5.28;;;1.77;;
73951;SDS011;62304;47.662;18.324;2023-03-14T00:44:42;6.07;;;2.33;;
73951;SDS011;62304;47.662;18.324;2023-03-14T00:47:45;6.80;;;2.30;;
73951;SDS011;62304;47.662;18.324;2023-03-14T00:50:48;5.55;;;2.45;;
73951;SDS011;62304;47.662;18.324;2023-03-14T00:53:51;7.07;;;2.53;;
73951;SDS011;62304;47.662;18.324;2023-03-14T00:56:54;5.62;;;2.15;;
73951;SDS011;62304;47.662;18.324;2023-03-14T00:59:57;5.60;;;2.00;;
73951;SDS011;62304;47.662;18.324;2023-03-14T01:03:00;5.47;;;1.70;;
73951;SDS011;62304;47.662;18.324;2023-03-14T01:06:11;5.62;;;2.17;;
73951;SDS011;62304;47.662;18.324;2023-03-14T01:09:18;5.35;;;1.90;;
73951;SDS011;62304;47.662;18.324;2023-03-14T01:12:22;5.12;;;1.85;;
73951;SDS011;62304;47.662;18.324;2023-03-14T01:15:25;5.97;;;2.22;;
73951;SDS011;62304;47.662;18.324;2023-03-14T01:18:28;5.50;;;1.83;;
73951;SDS011;62304;47.662;18.324;2023-03-14T01:21:32;6.68;;;2.08;;
73951;SDS011;62304;47.662;18.324;2023-03-14T01:24:37;6.12;;;2.35;;
73951;SDS011;62304;47.662;18.324;2023-03-14T01:27:40;5.00;;;1.60;;
73951;SDS011;62304;47.662;18.324;2023-03-14T01:30:44;4.55;;;1.70;;
73951;SDS011;62304;47.662;18.324;2023-03-14T01:33:48;6.70;;;2.47;;
73951;SDS011;62304;47.662;18.324;2023-03-14T01:36:52;5.90;;;2.15;;
73951;SDS011;62304;47.662;18.324;2023-03-14T01:39:55;7.22;;;2.30;;
73951;SDS011;62304;47.662;18.324;2023-03-14T01:43:05;7.05;;;1.75;;
73951;SDS011;62304;47.662;18.324;2023-03-14T01:49:43;4.73;;;2.00;;
73951;SDS011;62304;47.662;18.324;2023-03-14T01:52:49;6.25;;;2.15;;
73951;SDS011;62304;47.662;18.324;2023-03-14T01:55:55;6.30;;;1.35;;
73951;SDS011;62304;47.662;18.324;2023-03-14T01:58:59;4.35;;;1.37;;
73951;SDS011;62304;47.662;18.324;2023-03-14T02:02:07;5.62;;;2.50;;
73951;SDS011;62304;47.662;18.324;2023-03-14T02:05:16;5.83;;;1.90;;
73951;SDS011;62304;47.662;18.324;2023-03-14T02:08:26;5.72;;;1.90;;
73951;SDS011;62304;47.662;18.324;2023-03-14T02:11:31;10.18;;;2.30;;
73951;SDS011;62304;47.662;18.324;2023-03-14T02:14:35;6.18;;;2.45;;
73951;SDS011;62304;47.662;18.324;2023-03-14T02:17:40;5.82;;;1.90;;
73951;SDS011;62304;47.662;18.324;2023-03-14T02:24:13;4.70;;;2.22;;
73951;SDS011;62304;47.662;18.324;2023-03-14T02:27:25;7.53;;;2.53;;
73951;SDS011;62304;47.662;18.324;2023-03-14T02:30:30;6.22;;;2.03;;
73951;SDS011;62304;47.662;18.324;2023-03-14T02:33:35;4.57;;;1.77;;
73951;SDS011;62304;47.662;18.324;2023-03-14T02:36:41;8.27;;;2.27;;
73951;SDS011;62304;47.662;18.324;2023-03-14T02:39:44;5.00;;;1.35;;
73951;SDS011;62304;47.662;18.324;2023-03-14T02:42:49;8.63;;;1.73;;
73951;SDS011;62304;47.662;18.324;2023-03-14T02:45:53;5.15;;;1.50;;
73951;SDS011;62304;47.662;18.324;2023-03-14T02:49:02;5.10;;;1.95;;
73951;SDS011;62304;47.662;18.324;2023-03-14T02:52:11;3.40;;;1.10;;
73951;SDS011;62304;47.662;18.324;2023-03-14T02:55:14;4.47;;;1.60;;
73951;SDS011;62304;47.662;18.324;2023-03-14T02:58:22;4.78;;;1.60;;
73951;SDS011;62304;47.662;18.324;2023-03-14T03:01:26;5.60;;;2.25;;
73951;SDS011;62304;47.662;18.324;2023-03-14T03:04:29;7.62;;;2.53;;
73951;SDS011;62304;47.662;18.324;2023-03-14T03:07:32;5.60;;;2.00;;
73951;SDS011;62304;47.662;18.324;2023-03-14T03:10:35;4.72;;;1.92;;
73951;SDS011;62304;47.662;18.324;2023-03-14T03:13:41;8.45;;;2.65;;
73951;SDS011;62304;47.662;18.324;2023-03-14T03:16:44;5.78;;;1.42;;
73951;SDS011;62304;47.662;18.324;2023-03-14T03:19:47;6.55;;;2.22;;
73951;SDS011;62304;47.662;18.324;2023-03-14T03:22:50;7.13;;;2.50;;
73951;SDS011;62304;47.662;18.324;2023-03-14T03:25:53;8.40;;;2.30;;
73951;SDS011;62304;47.662;18.324;2023-03-14T03:28:56;4.57;;;1.95;;
73951;SDS011;62304;47.662;18.324;2023-03-14T03:32:00;9.30;;;2.62;;
73951;SDS011;62304;47.662;18.324;2023-03-14T03:35:03;5.50;;;2.03;;
73951;SDS011;62304;47.662;18.324;2023-03-14T03:38:07;6.63;;;2.70;;
73951;SDS011;62304;47.662;18.324;2023-03-14T03:41:11;6.95;;;2.83;;
73951;SDS011;62304;47.662;18.324;2023-03-14T03:44:14;7.78;;;3.20;;
73951;SDS011;62304;47.662;18.324;2023-03-14T03:47:17;4.72;;;1.83;;
73951;SDS011;62304;47.662;18.324;2023-03-14T03:50:20;5.05;;;1.77;;
73951;SDS011;62304;47.662;18.324;2023-03-14T03:53:23;7.17;;;2.13;;
73951;SDS011;62304;47.662;18.324;2023-03-14T03:56:35;5.82;;;2.35;;
73951;SDS011;62304;47.662;18.324;2023-03-14T03:59:38;7.35;;;2.90;;
73951;SDS011;62304;47.662;18.324;2023-03-14T04:02:43;8.32;;;1.95;;
73951;SDS011;62304;47.662;18.324;2023-03-14T04:05:57;7.60;;;2.55;;
73951;SDS011;62304;47.662;18.324;2023-03-14T04:09:04;4.67;;;1.40;;
73951;SDS011;62304;47.662;18.324;2023-03-14T04:12:07;5.72;;;2.12;;
73951;SDS011;62304;47.662;18.324;2023-03-14T04:15:11;7.12;;;1.87;;
73951;SDS011;62304;47.662;18.324;2023-03-14T04:18:15;6.22;;;1.83;;
73951;SDS011;62304;47.662;18.324;2023-03-14T04:21:18;6.85;;;1.65;;
73951;SDS011;62304;47.662;18.324;2023-03-14T04:24:21;5.07;;;1.77;;
73951;SDS011;62304;47.662;18.324;2023-03-14T04:27:24;3.67;;;1.08;;
73951;SDS011;62304;47.662;18.324;2023-03-14T04:30:29;6.87;;;1.73;;
73951;SDS011;62304;47.662;18.324;2023-03-14T04:33:32;4.30;;;1.08;;
73951;SDS011;62304;47.662;18.324;2023-03-14T04:36:35;7.00;;;1.65;;
73951;SDS011;62304;47.662;18.324;2023-03-14T04:39:42;6.40;;;1.57;;
73951;SDS011;62304;47.662;18.324;2023-03-14T04:42:46;5.03;;;1.75;;
73951;SDS011;62304;47.662;18.324;2023-03-14T04:45:50;4.55;;;1.62;;
73951;SDS011;62304;47.662;18.324;2023-03-14T04:48:53;3.45;;;0.93;;
73951;SDS011;62304;47.662;18.324;2023-03-14T04:51:58;3.83;;;1.15;;
73951;SDS011;62304;47.662;18.324;2023-03-14T04:55:02;5.60;;;1.60;;
73951;SDS011;62304;47.662;18.324;2023-03-14T04:58:06;6.03;;;1.70;;
73951;SDS011;62304;47.662;18.324;2023-03-14T05:01:10;3.17;;;1.15;;
73951;SDS011;62304;47.662;18.324;2023-03-14T05:04:14;4.62;;;1.35;;
73951;SDS011;62304;47.662;18.324;2023-03-14T05:07:17;6.15;;;2.25;;
73951;SDS011;62304;47.662;18.324;2023-03-14T05:10:20;5.20;;;1.50;;
73951;SDS011;62304;47.662;18.324;2023-03-14T05:13:23;5.50;;;1.70;;
73951;SDS011;62304;47.662;18.324;2023-03-14T05:16:27;6.53;;;1.52;;
73951;SDS011;62304;47.662;18.324;2023-03-14T05:19:30;4.37;;;1.52;;
73951;SDS011;62304;47.662;18.324;2023-03-14T05:22:36;4.00;;;1.48;;
73951;SDS011;62304;47.662;18.324;2023-03-14T05:25:39;5.30;;;1.40;;
73951;SDS011;62304;47.662;18.324;2023-03-14T05:28:43;6.05;;;1.85;;
73951;SDS011;62304;47.662;18.324;2023-03-14T05:31:46;5.18;;;2.03;;
73951;SDS011;62304;47.662;18.324;2023-03-14T05:34:50;5.25;;;1.92;;
73951;SDS011;62304;47.662;18.324;2023-03-14T05:37:54;6.47;;;2.97;;
73951;SDS011;62304;47.662;18.324;2023-03-14T05:40:57;3.90;;;1.40;;
73951;SDS011;62304;47.662;18.324;2023-03-14T05:44:01;6.03;;;1.92;;
73951;SDS011;62304;47.662;18.324;2023-03-14T05:47:04;4.45;;;1.48;;
73951;SDS011;62304;47.662;18.324;2023-03-14T05:50:08;3.55;;;1.35;;
73951;SDS011;62304;47.662;18.324;2023-03-14T05:53:12;4.65;;;1.37;;
73951;SDS011;62304;47.662;18.324;2023-03-14T05:56:15;5.47;;;1.83;;
73951;SDS011;62304;47.662;18.324;2023-03-14T05:59:18;5.07;;;1.62;;
73951;SDS011;62304;47.662;18.324;2023-03-14T06:02:22;7.55;;;2.25;;
73951;SDS011;62304;47.662;18.324;2023-03-14T06:05:25;3.78;;;1.23;;
73951;SDS011;62304;47.662;18.324;2023-03-14T06:08:30;4.80;;;1.40;;
73951;SDS011;62304;47.662;18.324;2023-03-14T06:11:33;7.87;;;1.60;;
73951;SDS011;62304;47.662;18.324;2023-03-14T06:14:36;6.45;;;1.90;;
73951;SDS011;62304;47.662;18.324;2023-03-14T06:17:40;4.72;;;1.40;;
73951;SDS011;62304;47.662;18.324;2023-03-14T06:20:43;5.72;;;1.40;;
73951;SDS011;62304;47.662;18.324;2023-03-14T06:23:47;7.15;;;1.80;;
73951;SDS011;62304;47.662;18.324;2023-03-14T06:26:51;5.03;;;1.50;;
73951;SDS011;62304;47.662;18.324;2023-03-14T06:29:54;4.80;;;1.48;;
73951;SDS011;62304;47.662;18.324;2023-03-14T06:32:58;7.35;;;1.90;;
73951;SDS011;62304;47.662;18.324;2023-03-14T06:36:01;6.72;;;2.20;;
73951;SDS011;62304;47.662;18.324;2023-03-14T06:39:06;7.10;;;2.22;;
73951;SDS011;62304;47.662;18.324;2023-03-14T06:42:10;9.03;;;2.73;;
73951;SDS011;62304;47.662;18.324;2023-03-14T06:45:14;13.20;;;2.95;;
73951;SDS011;62304;47.662;18.324;2023-03-14T06:48:18;9.18;;;3.10;;
73951;SDS011;62304;47.662;18.324;2023-03-14T06:51:21;10.75;;;2.62;;
73951;SDS011;62304;47.662;18.324;2023-03-14T06:54:26;3.90;;;1.35;;
73951;SDS011;62304;47.662;18.324;2023-03-14T06:57:28;7.17;;;2.10;;
73951;SDS011;62304;47.662;18.324;2023-03-14T07:00:32;4.20;;;1.60;;
73951;SDS011;62304;47.662;18.324;2023-03-14T07:03:35;12.93;;;2.50;;
73951;SDS011;62304;47.662;18.324;2023-03-14T07:06:39;5.03;;;1.65;;
73951;SDS011;62304;47.662;18.324;2023-03-14T07:09:46;4.95;;;1.40;;
73951;SDS011;62304;47.662;18.324;2023-03-14T07:12:50;8.80;;;2.20;;
73951;SDS011;62304;47.662;18.324;2023-03-14T07:15:55;6.57;;;1.42;;
73951;SDS011;62304;47.662;18.324;2023-03-14T07:18:59;7.62;;;2.35;;
73951;SDS011;62304;47.662;18.324;2023-03-14T07:22:03;3.53;;;1.30;;
73951;SDS011;62304;47.662;18.324;2023-03-14T07:25:07;5.03;;;1.80;;
73951;SDS011;62304;47.662;18.324;2023-03-14T07:28:14;5.33;;;2.13;;
73951;SDS011;62304;47.662;18.324;2023-03-14T07:31:17;4.62;;;1.58;;
73951;SDS011;62304;47.662;18.324;2023-03-14T07:34:21;5.50;;;1.52;;
73951;SDS011;62304;47.662;18.324;2023-03-14T07:37:24;7.65;;;4.50;;
73951;SDS011;62304;47.662;18.324;2023-03-14T07:40:27;10.88;;;4.80;;
73951;SDS011;62304;47.662;18.324;2023-03-14T07:43:31;8.60;;;3.23;;
73951;SDS011;62304;47.662;18.324;2023-03-14T07:46:35;9.38;;;4.15;;
73951;SDS011;62304;47.662;18.324;2023-03-14T07:49:38;39.72;;;29.98;;
73951;SDS011;62304;47.662;18.324;2023-03-14T07:52:41;11.95;;;8.32;;
73951;SDS011;62304;47.662;18.324;2023-03-14T07:55:44;9.90;;;6.65;;
73951;SDS011;62304;47.662;18.324;2023-03-14T07:58:47;11.73;;;8.40;;
73951;SDS011;62304;47.662;18.324;2023-03-14T08:01:51;10.10;;;5.10;;
73951;SDS011;62304;47.662;18.324;2023-03-14T08:04:54;5.70;;;2.15;;
73951;SDS011;62304;47.662;18.324;2023-03-14T08:07:57;9.57;;;4.85;;
73951;SDS011;62304;47.662;18.324;2023-03-14T08:11:09;6.03;;;2.87;;
73951;SDS011;62304;47.662;18.324;2023-03-14T08:14:12;8.83;;;3.07;;
73951;SDS011;62304;47.662;18.324;2023-03-14T08:17:15;17.25;;;5.75;;
73951;SDS011;62304;47.662;18.324;2023-03-14T08:20:18;9.60;;;2.37;;
73951;SDS011;62304;47.662;18.324;2023-03-14T08:23:22;8.70;;;4.70;;
73951;SDS011;62304;47.662;18.324;2023-03-14T08:26:25;9.82;;;3.30;;
73951;SDS011;62304;47.662;18.324;2023-03-14T08:29:28;9.87;;;4.20;;
73951;SDS011;62304;47.662;18.324;2023-03-14T08:32:31;6.65;;;3.45;;
73951;SDS011;62304;47.662;18.324;2023-03-14T08:35:34;9.68;;;2.67;;
73951;SDS011;62304;47.662;18.324;2023-03-14T08:38:39;7.68;;;2.20;;
73951;SDS011;62304;47.662;18.324;2023-03-14T08:41:45;6.57;;;4.25;;
73951;SDS011;62304;47.662;18.324;2023-03-14T08:44:48;8.27;;;3.70;;
73951;SDS011;62304;47.662;18.324;2023-03-14T08:47:51;7.07;;;2.97;;
73951;SDS011;62304;47.662;18.324;2023-03-14T08:50:53;7.15;;;2.37;;
73951;SDS011;62304;47.662;18.324;2023-03-14T08:53:57;11.32;;;2.35;;
73951;SDS011;62304;47.662;18.324;2023-03-14T08:56:59;9.93;;;7.50;;
73951;SDS011;62304;47.662;18.324;2023-03-14T09:00:04;6.23;;;2.50;;
73951;SDS011;62304;47.662;18.324;2023-03-14T09:03:16;7.97;;;4.60;;
73951;SDS011;62304;47.662;18.324;2023-03-14T09:06:19;5.57;;;2.33;;
73951;SDS011;62304;47.662;18.324;2023-03-14T09:09:22;8.90;;;1.67;;
73951;SDS011;62304;47.662;18.324;2023-03-14T09:12:25;9.30;;;4.25;;
73951;SDS011;62304;47.662;18.324;2023-03-14T09:15:28;6.00;;;3.07;;
73951;SDS011;62304;47.662;18.324;2023-03-14T09:18:31;6.50;;;2.12;;
73951;SDS011;62304;47.662;18.324;2023-03-14T09:21:34;7.18;;;1.90;;
73951;SDS011;62304;47.662;18.324;2023-03-14T09:24:37;5.65;;;1.77;;
73951;SDS011;62304;47.662;18.324;2023-03-14T09:27:41;5.50;;;2.17;;
73951;SDS011;62304;47.662;18.324;2023-03-14T09:30:44;6.50;;;3.00;;
73951;SDS011;62304;47.662;18.324;2023-03-14T09:33:47;5.95;;;2.20;;
73951;SDS011;62304;47.662;18.324;2023-03-14T09:36:50;7.43;;;2.70;;
73951;SDS011;62304;47.662;18.324;2023-03-14T09:39:53;5.53;;;2.00;;
73951;SDS011;62304;47.662;18.324;2023-03-14T09:42:56;7.12;;;1.85;;
73951;SDS011;62304;47.662;18.324;2023-03-14T09:46:01;5.83;;;1.93;;
73951;SDS011;62304;47.662;18.324;2023-03-14T09:49:51;3.83;;;1.05;;
73951;SDS011;62304;47.662;18.324;2023-03-14T09:52:36;6.25;;;2.80;;
73951;SDS011;62304;47.662;18.324;2023-03-14T09:55:47;6.00;;;1.40;;
73951;SDS011;62304;47.662;18.324;2023-03-14T09:59:00;3.42;;;0.90;;
73951;SDS011;62304;47.662;18.324;2023-03-14T10:02:17;3.67;;;1.40;;
73951;SDS011;62304;47.662;18.324;2023-03-14T10:05:25;4.12;;;0.95;;
73951;SDS011;62304;47.662;18.324;2023-03-14T10:08:30;5.07;;;1.00;;
73951;SDS011;62304;47.662;18.324;2023-03-14T10:11:33;3.40;;;0.85;;
73951;SDS011;62304;47.662;18.324;2023-03-14T10:14:37;5.12;;;1.05;;
73951;SDS011;62304;47.662;18.324;2023-03-14T10:17:47;2.80;;;0.80;;
73951;SDS011;62304;47.662;18.324;2023-03-14T10:21:05;4.82;;;0.90;;
73951;SDS011;62304;47.662;18.324;2023-03-14T10:24:30;4.55;;;0.90;;
73951;SDS011;62304;47.662;18.324;2023-03-14T10:27:35;3.15;;;0.80;;
73951;SDS011;62304;47.662;18.324;2023-03-14T10:30:39;4.60;;;0.90;;
73951;SDS011;62304;47.662;18.324;2023-03-14T10:34:01;3.63;;;0.80;;
73951;SDS011;62304;47.662;18.324;2023-03-14T10:37:07;2.85;;;0.80;;
73951;SDS011;62304;47.662;18.324;2023-03-14T10:40:20;5.87;;;1.40;;
73951;SDS011;62304;47.662;18.324;2023-03-14T10:43:32;4.75;;;1.20;;
73951;SDS011;62304;47.662;18.324;2023-03-14T10:46:37;3.95;;;0.90;;
73951;SDS011;62304;47.662;18.324;2023-03-14T10:49:55;4.20;;;0.80;;
73951;SDS011;62304;47.662;18.324;2023-03-14T10:53:02;3.45;;;0.77;;
73951;SDS011;62304;47.662;18.324;2023-03-14T10:56:12;4.43;;;0.90;;
73951;SDS011;62304;47.662;18.324;2023-03-14T10:59:27;4.80;;;0.75;;
73951;SDS011;62304;47.662;18.324;2023-03-14T11:05:57;5.40;;;0.93;;
73951;SDS011;62304;47.662;18.324;2023-03-14T11:29:41;9.27;;;2.05;;
73951;SDS011;62304;47.662;18.324;2023-03-14T11:39:16;7.27;;;2.30;;
73951;SDS011;62304;47.662;18.324;2023-03-14T11:42:20;7.32;;;1.87;;
73951;SDS011;62304;47.662;18.324;2023-03-14T11:45:32;4.78;;;1.50;;
73951;SDS011;62304;47.662;18.324;2023-03-14T11:48:41;8.05;;;1.58;;
73951;SDS011;62304;47.662;18.324;2023-03-14T11:52:10;4.82;;;1.30;;
73951;SDS011;62304;47.662;18.324;2023-03-14T11:55:36;7.53;;;1.67;;
73951;SDS011;62304;47.662;18.324;2023-03-14T11:58:43;5.28;;;1.20;;
73951;SDS011;62304;47.662;18.324;2023-03-14T12:02:09;7.87;;;2.20;;
73951;SDS011;62304;47.662;18.324;2023-03-14T12:05:45;5.97;;;1.30;;
73951;SDS011;62304;47.662;18.324;2023-03-14T12:08:56;6.68;;;1.90;;
73951;SDS011;62304;47.662;18.324;2023-03-14T12:12:05;3.50;;;0.97;;
73951;SDS011;62304;47.662;18.324;2023-03-14T12:15:20;5.80;;;0.93;;
73951;SDS011;62304;47.662;18.324;2023-03-14T12:18:29;4.10;;;0.40;;
73951;SDS011;62304;47.662;18.324;2023-03-14T12:21:48;10.13;;;1.15;;
73951;SDS011;62304;47.662;18.324;2023-03-14T12:25:06;2.90;;;0.80;;
73951;SDS011;62304;47.662;18.324;2023-03-14T12:28:21;3.23;;;0.70;;
73951;SDS011;62304;47.662;18.324;2023-03-14T12:32:20;4.55;;;0.90;;
73951;SDS011;62304;47.662;18.324;2023-03-14T12:35:07;4.55;;;1.00;;
73951;SDS011;62304;47.662;18.324;2023-03-14T12:41:43;4.35;;;1.27;;
73951;SDS011;62304;47.662;18.324;2023-03-14T12:44:49;8.27;;;1.60;;
73951;SDS011;62304;47.662;18.324;2023-03-14T12:47:56;8.25;;;1.73;;
73951;SDS011;62304;47.662;18.324;2023-03-14T12:51:03;5.37;;;1.27;;
73951;SDS011;62304;47.662;18.324;2023-03-14T12:57:42;4.82;;;1.87;;
73951;SDS011;62304;47.662;18.324;2023-03-14T13:00:54;8.23;;;1.60;;
73951;SDS011;62304;47.662;18.324;2023-03-14T13:04:03;7.03;;;1.20;;
73951;SDS011;62304;47.662;18.324;2023-03-14T13:10:39;4.93;;;0.95;;
73951;SDS011;62304;47.662;18.324;2023-03-14T13:13:48;6.65;;;1.52;;
73951;SDS011;62304;47.662;18.324;2023-03-14T13:17:01;5.40;;;1.20;;
73951;SDS011;62304;47.662;18.324;2023-03-14T13:20:28;7.95;;;1.83;;
73951;SDS011;62304;47.662;18.324;2023-03-14T13:23:35;4.78;;;1.90;;
73951;SDS011;62304;47.662;18.324;2023-03-14T13:26:41;5.95;;;1.70;;
73951;SDS011;62304;47.662;18.324;2023-03-14T13:29:45;4.18;;;1.25;;
73951;SDS011;62304;47.662;18.324;2023-03-14T13:32:51;4.27;;;1.37;;
73951;SDS011;62304;47.662;18.324;2023-03-14T13:36:05;3.33;;;0.90;;
73951;SDS011;62304;47.662;18.324;2023-03-14T13:39:18;4.93;;;1.35;;
73951;SDS011;62304;47.662;18.324;2023-03-14T13:42:25;5.18;;;1.10;;
73951;SDS011;62304;47.662;18.324;2023-03-14T13:45:29;4.72;;;1.10;;
73951;SDS011;62304;47.662;18.324;2023-03-14T13:48:34;4.23;;;1.10;;
73951;SDS011;62304;47.662;18.324;2023-03-14T13:51:41;4.10;;;1.10;;
73951;SDS011;62304;47.662;18.324;2023-03-14T13:54:45;6.75;;;1.20;;
73951;SDS011;62304;47.662;18.324;2023-03-14T13:57:49;6.68;;;1.15;;
73951;SDS011;62304;47.662;18.324;2023-03-14T14:00:59;3.78;;;0.80;;
73951;SDS011;62304;47.662;18.324;2023-03-14T14:04:07;4.00;;;1.37;;
73951;SDS011;62304;47.662;18.324;2023-03-14T14:07:15;5.37;;;1.10;;
73951;SDS011;62304;47.662;18.324;2023-03-14T14:10:22;4.85;;;0.98;;
73951;SDS011;62304;47.662;18.324;2023-03-14T14:13:25;4.72;;;0.60;;
73951;SDS011;62304;47.662;18.324;2023-03-14T14:16:32;3.75;;;1.20;;
73951;SDS011;62304;47.662;18.324;2023-03-14T14:19:35;2.70;;;0.50;;
73951;SDS011;62304;47.662;18.324;2023-03-14T14:22:39;3.22;;;0.80;;
73951;SDS011;62304;47.662;18.324;2023-03-14T14:25:43;3.20;;;1.00;;
73951;SDS011;62304;47.662;18.324;2023-03-14T14:28:46;3.65;;;0.73;;
73951;SDS011;62304;47.662;18.324;2023-03-14T14:35:11;3.37;;;1.20;;
73951;SDS011;62304;47.662;18.324;2023-03-14T14:38:28;6.87;;;2.97;;
73951;SDS011;62304;47.662;18.324;2023-03-14T14:41:34;5.25;;;1.95;;
73951;SDS011;62304;47.662;18.324;2023-03-14T14:44:41;4.70;;;1.27;;
73951;SDS011;62304;47.662;18.324;2023-03-14T14:51:04;5.97;;;1.77;;
73951;SDS011;62304;47.662;18.324;2023-03-14T14:54:10;3.70;;;1.30;;
73951;SDS011;62304;47.662;18.324;2023-03-14T14:57:17;7.53;;;1.60;;
73951;SDS011;62304;47.662;18.324;2023-03-14T15:00:23;10.07;;;4.35;;
73951;SDS011;62304;47.662;18.324;2023-03-14T15:03:27;7.62;;;3.33;;
73951;SDS011;62304;47.662;18.324;2023-03-14T15:06:32;2.90;;;0.70;;
73951;SDS011;62304;47.662;18.324;2023-03-14T15:09:35;5.35;;;1.42;;
73951;SDS011;62304;47.662;18.324;2023-03-14T15:12:38;6.18;;;1.30;;
73951;SDS011;62304;47.662;18.324;2023-03-14T15:15:41;3.15;;;1.08;;
73951;SDS011;62304;47.662;18.324;2023-03-14T15:18:47;3.97;;;1.00;;
73951;SDS011;62304;47.662;18.324;2023-03-14T15:21:56;5.57;;;1.87;;
73951;SDS011;62304;47.662;18.324;2023-03-14T15:24:59;4.85;;;1.10;;
73951;SDS011;62304;47.662;18.324;2023-03-14T15:28:02;6.45;;;1.48;;
73951;SDS011;62304;47.662;18.324;2023-03-14T15:31:08;8.90;;;1.48;;
73951;SDS011;62304;47.662;18.324;2023-03-14T15:34:12;5.93;;;1.42;;
73951;SDS011;62304;47.662;18.324;2023-03-14T15:37:16;4.27;;;1.60;;
73951;SDS011;62304;47.662;18.324;2023-03-14T15:40:19;6.45;;;2.50;;
73951;SDS011;62304;47.662;18.324;2023-03-14T15:43:23;5.55;;;2.10;;
73951;SDS011;62304;47.662;18.324;2023-03-14T15:46:26;5.70;;;1.80;;
73951;SDS011;62304;47.662;18.324;2023-03-14T15:49:32;6.75;;;2.22;;
73951;SDS011;62304;47.662;18.324;2023-03-14T15:52:35;5.83;;;1.80;;
73951;SDS011;62304;47.662;18.324;2023-03-14T15:55:38;6.05;;;2.37;;
73951;SDS011;62304;47.662;18.324;2023-03-14T15:58:41;7.35;;;2.60;;
73951;SDS011;62304;47.662;18.324;2023-03-14T16:01:44;9.80;;;4.03;;
73951;SDS011;62304;47.662;18.324;2023-03-14T16:04:50;7.57;;;2.83;;
73951;SDS011;62304;47.662;18.324;2023-03-14T16:07:53;6.63;;;2.37;;
73951;SDS011;62304;47.662;18.324;2023-03-14T16:10:59;8.90;;;3.62;;
73951;SDS011;62304;47.662;18.324;2023-03-14T16:14:02;17.73;;;6.65;;
73951;SDS011;62304;47.662;18.324;2023-03-14T16:17:05;23.90;;;8.60;;
73951;SDS011;62304;47.662;18.324;2023-03-14T16:20:13;27.55;;;11.98;;
73951;SDS011;62304;47.662;18.324;2023-03-14T16:23:16;30.07;;;12.83;;
73951;SDS011;62304;47.662;18.324;2023-03-14T16:28:03;31.12;;;16.83;;
73951;SDS011;62304;47.662;18.324;2023-03-14T16:31:14;34.92;;;18.42;;
73951;SDS011;62304;47.662;18.324;2023-03-14T16:34:20;29.35;;;16.85;;
73951;SDS011;62304;47.662;18.324;2023-03-14T16:37:23;25.67;;;14.60;;
73951;SDS011;62304;47.662;18.324;2023-03-14T16:40:28;23.07;;;13.30;;
73951;SDS011;62304;47.662;18.324;2023-03-14T16:43:32;19.62;;;12.68;;
73951;SDS011;62304;47.662;18.324;2023-03-14T16:46:38;17.90;;;11.00;;
73951;SDS011;62304;47.662;18.324;2023-03-14T16:49:42;16.35;;;10.55;;
73951;SDS011;62304;47.662;18.324;2023-03-14T16:52:45;17.70;;;10.73;;
73951;SDS011;62304;47.662;18.324;2023-03-14T16:55:49;14.93;;;10.53;;
73951;SDS011;62304;47.662;18.324;2023-03-14T16:58:53;18.80;;;12.43;;
73951;SDS011;62304;47.662;18.324;2023-03-14T17:01:56;19.80;;;11.40;;
73951;SDS011;62304;47.662;18.324;2023-03-14T17:05:01;43.38;;;22.52;;
73951;SDS011;62304;47.662;18.324;2023-03-14T17:08:05;27.33;;;15.00;;
73951;SDS011;62304;47.662;18.324;2023-03-14T17:11:08;13.77;;;7.93;;
73951;SDS011;62304;47.662;18.324;2023-03-14T17:14:13;15.40;;;8.88;;
73951;SDS011;62304;47.662;18.324;2023-03-14T17:17:19;14.40;;;8.55;;
73951;SDS011;62304;47.662;18.324;2023-03-14T17:20:23;12.93;;;8.05;;
73951;SDS011;62304;47.662;18.324;2023-03-14T17:23:27;13.70;;;7.80;;
73951;SDS011;62304;47.662;18.324;2023-03-14T17:26:32;15.07;;;8.23;;
73951;SDS011;62304;47.662;18.324;2023-03-14T17:29:36;15.98;;;11.55;;
73951;SDS011;62304;47.662;18.324;2023-03-14T17:32:41;16.33;;;10.35;;
73951;SDS011;62304;47.662;18.324;2023-03-14T17:35:45;13.95;;;8.43;;
73951;SDS011;62304;47.662;18.324;2023-03-14T17:38:50;14.77;;;7.73;;
73951;SDS011;62304;47.662;18.324;2023-03-14T17:42:00;13.63;;;7.67;;
73951;SDS011;62304;47.662;18.324;2023-03-14T17:45:05;13.62;;;7.18;;
73951;SDS011;62304;47.662;18.324;2023-03-14T17:48:09;13.75;;;8.68;;
73951;SDS011;62304;47.662;18.324;2023-03-14T17:51:16;17.08;;;9.57;;
73951;SDS011;62304;47.662;18.324;2023-03-14T17:54:20;60.77;;;26.63;;
73951;SDS011;62304;47.662;18.324;2023-03-14T17:57:25;73.40;;;29.73;;
73951;SDS011;62304;47.662;18.324;2023-03-14T18:00:32;59.92;;;25.33;;
73951;SDS011;62304;47.662;18.324;2023-03-14T18:03:36;49.17;;;22.50;;
73951;SDS011;62304;47.662;18.324;2023-03-14T18:06:40;45.92;;;20.02;;
73951;SDS011;62304;47.662;18.324;2023-03-14T18:09:46;44.80;;;19.73;;
73951;SDS011;62304;47.662;18.324;2023-03-14T18:12:51;42.73;;;18.03;;
73951;SDS011;62304;47.662;18.324;2023-03-14T18:15:59;37.72;;;16.85;;
73951;SDS011;62304;47.662;18.324;2023-03-14T18:19:04;42.95;;;19.05;;
73951;SDS011;62304;47.662;18.324;2023-03-14T18:22:10;64.45;;;26.23;;
73951;SDS011;62304;47.662;18.324;2023-03-14T18:25:16;34.80;;;17.60;;
73951;SDS011;62304;47.662;18.324;2023-03-14T18:28:23;38.93;;;19.07;;
73951;SDS011;62304;47.662;18.324;2023-03-14T18:31:27;52.58;;;24.98;;
73951;SDS011;62304;47.662;18.324;2023-03-14T18:34:32;52.13;;;26.42;;
73951;SDS011;62304;47.662;18.324;2023-03-14T18:37:38;74.50;;;34.80;;
73951;SDS011;62304;47.662;18.324;2023-03-14T18:40:42;74.83;;;34.50;;
73951;SDS011;62304;47.662;18.324;2023-03-14T18:43:48;42.60;;;24.67;;
73951;SDS011;62304;47.662;18.324;2023-03-14T18:46:53;41.37;;;23.02;;
73951;SDS011;62304;47.662;18.324;2023-03-14T18:49:57;41.60;;;22.90;;
73951;SDS011;62304;47.662;18.324;2023-03-14T18:53:02;42.00;;;24.00;;
73951;SDS011;62304;47.662;18.324;2023-03-14T18:56:07;47.67;;;27.63;;
73951;SDS011;62304;47.662;18.324;2023-03-14T18:59:16;54.37;;;29.10;;
73951;SDS011;62304;47.662;18.324;2023-03-14T19:02:22;41.50;;;24.20;;
73951;SDS011;62304;47.662;18.324;2023-03-14T19:05:30;35.15;;;19.77;;
73951;SDS011;62304;47.662;18.324;2023-03-14T19:08:34;35.50;;;21.02;;
73951;SDS011;62304;47.662;18.324;2023-03-14T19:11:41;33.90;;;18.93;;
73951;SDS011;62304;47.662;18.324;2023-03-14T19:14:50;42.00;;;23.57;;